aviador You're here:

KVDF Decoded Metar

TAMPA/VANDENBURG in FL, USA
Report Time2017-05-22 19:15:00
UTC Time2017-05-22 19:21:24
Flight Rules vfr VFR
WindCalm
Visibility9999 m
Phenomena:N/A
Clouds:N/A
Expected CloudBase > 5,600 ft AGL from Temp-Dew spread
CeilingNone
Temp33°C (ISA +18)
Dew Point19°C (44% RH)
Heat Index34.7°C
QNH1016 hPa
Density Alt2,270 ft
Elevation23 ft
Report Wrong Elevation
Raw Report
METAR KVDF 221915Z AUTO 00000KT 10SM CLR 33/19 A3000 RMK AO2=

Extra information for KVDF:More info

Metar Taf Metar & Taf Last 4 Metars F.Rules Stats Wind Profile Meteogram Temp Stats Airport Information Weather charts Add Link Nearby VenuesMetar ALERT Operation Metar Decoded Social comments

AIRNAV info for KVDF